Ixtapa, GRO, Mexico
Current Conditions -  °F | °C
As of 8:45 PM on Monday 26 Jan 2015 (Local Time) from MMZH Reporting Station
Clear Clear  
Wind Chill: 77°   Ceiling: Unl
Heat Index: 78°   Visibility: 6mi
Dew Point: 72°   Wind: 0mph
Humidity: 83%   Direction: NA
Pressure: 29.91"   Gusts: NA
Location:  17.66°N, 101.59°W
Report Text: MMZH 270245Z 00000KT 6SM SKC 25/22 A2991 RMK SLP/// 5//// 9// HZY
Loading
Personal Weather Stations






























Interactive Weather Map New forecast layout! Learn more

10-Day Weather Forecast

Advertisements
Track Severe Weather on mobile